createdAt,value
2022-11-29T00:01:15.059Z,2.38
2022-11-29T00:03:41.733Z,2.00
2022-11-29T00:06:14.369Z,2.28
2022-11-29T00:08:41.612Z,2.53
2022-11-29T00:11:13.888Z,2.72
2022-11-29T00:13:41.151Z,2.25
2022-11-29T00:16:10.657Z,3.20
2022-11-29T00:18:38.392Z,2.72
2022-11-29T00:21:08.915Z,2.40
2022-11-29T00:23:36.469Z,2.35
2022-11-29T00:26:07.618Z,2.58
2022-11-29T00:28:35.557Z,2.30
2022-11-29T00:31:23.062Z,2.42
2022-11-29T00:33:50.165Z,2.47
2022-11-29T00:36:17.329Z,2.60
2022-11-29T00:38:44.410Z,2.63
2022-11-29T00:41:12.006Z,2.60
2022-11-29T00:43:39.699Z,2.85
2022-11-29T00:46:07.231Z,2.38
2022-11-29T00:48:34.815Z,2.28
2022-11-29T00:51:02.436Z,2.55
2022-11-29T00:53:29.340Z,2.67
2022-11-29T00:55:56.587Z,2.40
2022-11-29T00:58:23.672Z,2.10
2022-11-29T01:00:50.827Z,2.40
2022-11-29T01:03:18.020Z,2.75
2022-11-29T01:05:45.428Z,3.00
2022-11-29T01:08:12.887Z,3.03
2022-11-29T01:10:40.084Z,2.30
2022-11-29T01:13:07.542Z,2.33
2022-11-29T01:15:34.672Z,2.50
2022-11-29T01:18:02.197Z,3.10
2022-11-29T01:20:28.927Z,2.95
2022-11-29T01:22:55.764Z,2.40
2022-11-29T01:25:22.581Z,2.45
2022-11-29T01:27:49.374Z,2.78
2022-11-29T01:30:16.201Z,2.73
2022-11-29T01:32:43.051Z,2.60
2022-11-29T01:35:09.880Z,2.53
2022-11-29T01:37:36.634Z,2.80
2022-11-29T01:40:06.735Z,2.80
2022-11-29T01:42:33.473Z,2.53
2022-11-29T01:45:26.933Z,2.75
2022-11-29T01:47:57.993Z,2.42
2022-11-29T01:50:25.130Z,2.63
2022-11-29T01:52:52.352Z,2.42
2022-11-29T01:55:19.334Z,2.30
2022-11-29T01:57:46.702Z,2.40
2022-11-29T02:00:16.833Z,2.63
2022-11-29T02:02:52.196Z,2.80
2022-11-29T02:05:19.812Z,2.63
2022-11-29T02:07:52.168Z,2.93
2022-11-29T02:10:20.149Z,2.90
2022-11-29T02:13:02.873Z,2.30
2022-11-29T02:15:59.499Z,2.60
2022-11-29T02:18:47.967Z,2.90
2022-11-29T02:21:46.337Z,2.80
2022-11-29T02:24:21.801Z,2.58
2022-11-29T02:26:54.577Z,3.08
2022-11-29T02:29:44.833Z,2.65
2022-11-29T02:32:48.559Z,2.83
2022-11-29T02:35:33.844Z,2.77
2022-11-29T02:38:14.825Z,2.65
2022-11-29T02:40:53.344Z,2.65
2022-11-29T02:43:32.399Z,2.80
2022-11-29T02:46:07.904Z,2.90
2022-11-29T02:48:43.662Z,2.80
2022-11-29T02:51:32.219Z,3.10
2022-11-29T02:54:12.647Z,2.60
2022-11-29T02:56:53.866Z,2.67
2022-11-29T02:59:37.224Z,2.92
2022-11-29T03:02:37.116Z,2.90
2022-11-29T03:05:06.510Z,1.90
2022-11-29T03:08:05.249Z,2.40
2022-11-29T03:10:43.919Z,2.60
2022-11-29T03:13:20.517Z,2.47
2022-11-29T03:16:08.547Z,3.03
2022-11-29T03:19:05.966Z,2.53
2022-11-29T03:21:51.544Z,2.67
2022-11-29T03:24:42.468Z,2.40
2022-11-29T03:27:21.400Z,2.33
2022-11-29T03:29:58.174Z,2.60
2022-11-29T03:32:35.587Z,2.53
2022-11-29T03:35:05.434Z,2.53
2022-11-29T03:37:58.389Z,2.50
2022-11-29T03:40:52.988Z,2.80
2022-11-29T03:43:46.098Z,2.40
2022-11-29T03:46:23.530Z,3.00
2022-11-29T03:48:56.624Z,2.72
2022-11-29T03:52:00.205Z,2.55
2022-11-29T03:54:43.059Z,2.78
2022-11-29T03:57:12.497Z,2.93
2022-11-29T03:59:58.986Z,2.58
2022-11-29T04:02:39.825Z,2.63
2022-11-29T04:05:32.929Z,2.40
2022-11-29T04:08:38.197Z,2.92
2022-11-29T04:11:26.567Z,2.43
2022-11-29T04:13:53.304Z,2.63
2022-11-29T04:16:57.071Z,2.60
2022-11-29T04:19:46.249Z,2.60
2022-11-29T04:22:33.654Z,2.33
2022-11-29T04:25:11.488Z,2.80
2022-11-29T04:27:50.422Z,2.50
2022-11-29T04:30:25.146Z,2.60
2022-11-29T04:33:19.875Z,2.70
2022-11-29T04:36:06.532Z,2.42
2022-11-29T04:38:51.519Z,2.53
2022-11-29T04:41:46.261Z,2.50
2022-11-29T04:44:53.816Z,2.35
2022-11-29T04:47:42.177Z,2.38
2022-11-29T04:50:14.829Z,2.30
2022-11-29T04:52:48.045Z,2.40
2022-11-29T04:55:36.189Z,2.47
2022-11-29T04:58:52.497Z,2.90
2022-11-29T05:01:40.644Z,2.35
2022-11-29T05:04:19.485Z,2.22
2022-11-29T05:07:05.089Z,2.53
2022-11-29T05:09:59.541Z,2.42
2022-11-29T05:12:38.821Z,1.95
2022-11-29T05:15:24.070Z,2.55
2022-11-29T05:18:03.373Z,2.70
2022-11-29T05:20:57.541Z,2.63
2022-11-29T05:23:39.428Z,2.80
2022-11-29T05:26:17.947Z,2.97
2022-11-29T05:29:01.668Z,2.63
2022-11-29T05:31:46.936Z,2.58
2022-11-29T05:34:35.578Z,2.97
2022-11-29T05:37:21.768Z,2.65
2022-11-29T05:40:39.390Z,2.50
2022-11-29T05:43:39.819Z,2.42
2022-11-29T05:46:19.923Z,2.53
2022-11-29T05:49:11.871Z,2.37
2022-11-29T05:52:20.413Z,2.45
2022-11-29T05:55:07.949Z,2.35
2022-11-29T05:57:53.728Z,2.33
2022-11-29T06:00:21.354Z,2.38
2022-11-29T06:03:18.741Z,2.58
2022-11-29T06:06:13.333Z,2.10
2022-11-29T06:08:47.439Z,2.30
2022-11-29T06:11:24.853Z,2.50
2022-11-29T06:13:51.619Z,2.30
2022-11-29T06:16:30.314Z,2.03
2022-11-29T06:19:24.841Z,2.30
2022-11-29T06:22:20.984Z,2.55
2022-11-29T06:25:17.200Z,2.58
2022-11-29T06:28:38.226Z,2.35
2022-11-29T06:31:26.671Z,2.73
2022-11-29T06:33:59.427Z,2.47
2022-11-29T06:36:34.602Z,2.72
2022-11-29T06:39:01.962Z,3.00
2022-11-29T06:41:28.904Z,2.83
2022-11-29T06:43:56.231Z,3.33
2022-11-29T06:46:42.496Z,3.00
2022-11-29T06:49:14.229Z,2.20
2022-11-29T06:51:56.172Z,2.70
2022-11-29T06:54:59.106Z,2.35
2022-11-29T06:57:43.321Z,2.40
2022-11-29T07:00:20.765Z,2.55
2022-11-29T07:03:17.404Z,2.25
2022-11-29T07:05:44.597Z,3.60
2022-11-29T07:08:18.712Z,4.10
2022-11-29T07:10:49.630Z,7.37
2022-11-29T07:13:18.349Z,2.90
2022-11-29T07:15:51.588Z,3.20
2022-11-29T07:18:56.631Z,2.55
2022-11-29T07:21:26.412Z,3.60
2022-11-29T07:24:02.840Z,3.10
2022-11-29T07:26:31.995Z,3.60
2022-11-29T07:29:32.665Z,4.03
2022-11-29T07:32:05.400Z,3.88
2022-11-29T07:34:45.831Z,4.28
2022-11-29T07:37:30.718Z,3.00
2022-11-29T07:40:05.010Z,2.50
2022-11-29T07:42:38.272Z,3.78
2022-11-29T07:45:39.084Z,2.10
2022-11-29T07:48:06.979Z,2.45
2022-11-29T07:50:35.332Z,2.60
2022-11-29T07:53:02.594Z,2.60
2022-11-29T07:55:29.814Z,2.55
2022-11-29T07:57:56.567Z,2.60
2022-11-29T08:00:23.402Z,2.60
2022-11-29T08:02:50.673Z,3.20
2022-11-29T08:05:17.540Z,2.28
2022-11-29T08:07:44.351Z,2.15
2022-11-29T08:10:14.457Z,2.38
2022-11-29T08:12:47.383Z,2.38
2022-11-29T08:15:14.699Z,3.20
2022-11-29T08:17:41.536Z,2.70
2022-11-29T08:20:09.994Z,2.67
2022-11-29T08:22:37.063Z,2.30
2022-11-29T08:25:05.579Z,2.80
2022-11-29T08:27:32.300Z,2.30
2022-11-29T08:29:59.341Z,1.80
2022-11-29T08:32:27.300Z,2.50
2022-11-29T08:34:54.224Z,2.30
2022-11-29T08:37:20.905Z,2.22
2022-11-29T08:39:47.974Z,2.17
2022-11-29T08:42:14.684Z,2.45
2022-11-29T08:44:41.420Z,1.85
2022-11-29T08:47:28.842Z,2.42
2022-11-29T08:50:04.839Z,2.30
2022-11-29T08:52:56.269Z,2.00
2022-11-29T08:55:26.322Z,2.63
2022-11-29T08:58:01.020Z,2.22
2022-11-29T09:00:27.779Z,2.08
2022-11-29T09:02:54.887Z,2.10
2022-11-29T09:05:21.689Z,2.40
2022-11-29T09:07:48.428Z,1.80
2022-11-29T09:10:15.240Z,2.10
2022-11-29T09:12:44.291Z,2.42
2022-11-29T09:15:11.492Z,2.00
2022-11-29T09:17:38.241Z,2.20
2022-11-29T09:20:06.054Z,2.25
2022-11-29T09:22:32.818Z,2.15
2022-11-29T09:24:59.550Z,2.55
2022-11-29T09:27:26.211Z,2.63
2022-11-29T09:29:53.175Z,1.80
2022-11-29T09:32:19.819Z,2.00
2022-11-29T09:34:46.838Z,2.10
2022-11-29T09:37:13.748Z,2.30
2022-11-29T09:39:41.557Z,2.15
2022-11-29T09:42:41.568Z,2.23
2022-11-29T09:45:18.669Z,2.30
2022-11-29T09:48:03.751Z,2.20
2022-11-29T09:50:34.044Z,1.92
2022-11-29T09:53:29.282Z,2.30
2022-11-29T09:56:12.244Z,1.93
2022-11-29T09:59:18.307Z,2.10
2022-11-29T10:01:58.325Z,2.10
2022-11-29T10:04:31.354Z,2.42
2022-11-29T10:07:29.172Z,2.45
2022-11-29T10:10:14.892Z,3.00
2022-11-29T10:12:50.592Z,2.78
2022-11-29T10:15:22.775Z,2.75
2022-11-29T10:17:56.194Z,2.60
2022-11-29T10:20:26.567Z,2.92
2022-11-29T10:22:58.852Z,2.80
2022-11-29T10:25:31.450Z,2.50
2022-11-29T10:27:58.577Z,1.95
2022-11-29T10:30:25.682Z,1.98
2022-11-29T10:32:57.646Z,2.72
2022-11-29T10:35:24.824Z,2.20
2022-11-29T10:38:22.735Z,2.00
2022-11-29T10:40:47.980Z,1.83
2022-11-29T10:43:14.897Z,1.80
2022-11-29T10:45:50.538Z,2.30
2022-11-29T10:48:19.876Z,2.40
2022-11-29T10:50:51.837Z,2.28
2022-11-29T10:53:38.782Z,2.45
2022-11-29T10:56:29.916Z,2.20
2022-11-29T10:59:09.435Z,2.20
2022-11-29T11:01:40.978Z,2.10
2022-11-29T11:04:15.337Z,2.03
2022-11-29T11:06:49.334Z,2.00
2022-11-29T11:09:32.970Z,2.00
2022-11-29T11:12:04.085Z,1.90
2022-11-29T11:14:32.998Z,2.10
2022-11-29T11:17:22.344Z,2.20
2022-11-29T11:20:05.611Z,1.98
2022-11-29T11:22:33.722Z,1.90
2022-11-29T11:25:05.295Z,2.10
2022-11-29T11:27:35.191Z,2.33
2022-11-29T11:30:04.920Z,1.90
2022-11-29T11:32:31.680Z,2.10
2022-11-29T11:35:01.132Z,1.98
2022-11-29T11:37:30.262Z,2.22
2022-11-29T11:40:17.906Z,1.97
2022-11-29T11:42:45.304Z,2.05
2022-11-29T11:45:11.979Z,1.50
2022-11-29T11:47:51.492Z,1.90
2022-11-29T11:50:31.910Z,1.67
2022-11-29T11:53:03.770Z,1.63
2022-11-29T11:55:43.090Z,5.20
2022-11-29T11:58:12.569Z,3.20
2022-11-29T12:01:07.121Z,2.40
2022-11-29T12:03:59.098Z,1.60
2022-11-29T12:06:36.126Z,1.67
2022-11-29T12:09:11.369Z,2.35
2022-11-29T12:12:00.535Z,3.25
2022-11-29T12:14:40.387Z,2.03
2022-11-29T12:17:20.261Z,1.60
2022-11-29T12:19:59.736Z,1.90
2022-11-29T12:22:35.584Z,1.48
2022-11-29T12:25:06.715Z,1.48
2022-11-29T12:27:33.448Z,1.50
2022-11-29T12:30:00.203Z,1.70
2022-11-29T12:32:26.933Z,1.90
2022-11-29T12:35:18.849Z,1.88
2022-11-29T12:38:06.109Z,1.90
2022-11-29T12:41:03.961Z,1.52
2022-11-29T12:44:03.343Z,1.80
2022-11-29T12:46:31.245Z,1.73
2022-11-29T12:49:26.788Z,1.70
2022-11-29T12:52:09.667Z,1.83
2022-11-29T12:55:02.621Z,1.70
2022-11-29T12:57:48.949Z,1.90
2022-11-29T13:00:18.237Z,1.80
2022-11-29T13:03:12.985Z,1.48
2022-11-29T13:05:43.357Z,1.58
2022-11-29T13:08:25.023Z,1.67
2022-11-29T13:11:20.737Z,1.83
2022-11-29T13:14:34.808Z,1.40
2022-11-29T13:16:59.180Z,1.65
2022-11-29T13:19:47.585Z,1.65
2022-11-29T13:22:21.426Z,1.67
2022-11-29T13:24:53.631Z,1.58
2022-11-29T13:27:35.176Z,1.80
2022-11-29T13:30:05.325Z,1.90
2022-11-29T13:32:40.359Z,1.98
2022-11-29T13:35:43.223Z,2.00
2022-11-29T13:38:32.189Z,1.80
2022-11-29T13:41:12.480Z,2.10
2022-11-29T13:43:52.244Z,1.88
2022-11-29T13:46:26.072Z,2.22
2022-11-29T13:48:54.374Z,2.33
2022-11-29T13:51:30.941Z,1.77
2022-11-29T13:54:04.488Z,2.00
2022-11-29T13:56:46.194Z,3.00
2022-11-29T13:59:27.597Z,2.08
2022-11-29T14:01:54.853Z,3.28
2022-11-29T14:04:32.771Z,2.25
2022-11-29T14:07:11.415Z,1.90
2022-11-29T14:09:44.080Z,2.03
2022-11-29T14:12:31.096Z,1.60
2022-11-29T14:15:13.505Z,2.40
2022-11-29T14:17:46.749Z,2.30
2022-11-29T14:20:22.297Z,1.90
2022-11-29T14:23:04.230Z,1.55
2022-11-29T14:25:52.237Z,1.95
2022-11-29T14:28:22.140Z,1.88
2022-11-29T14:31:01.883Z,2.00
2022-11-29T14:33:47.259Z,1.90
2022-11-29T14:36:42.124Z,2.13
2022-11-29T14:39:30.246Z,1.90
2022-11-29T14:42:18.702Z,1.70
2022-11-29T14:44:52.127Z,2.10
2022-11-29T14:47:47.924Z,2.10
2022-11-29T14:50:36.002Z,2.88
2022-11-29T14:53:05.583Z,2.20
2022-11-29T14:55:35.533Z,2.75
2022-11-29T14:58:03.721Z,2.15
2022-11-29T15:00:34.917Z,2.30
2022-11-29T15:03:16.762Z,2.10
2022-11-29T15:05:46.717Z,2.55
2022-11-29T15:08:56.558Z,2.50
2022-11-29T15:11:46.998Z,2.22
2022-11-29T15:14:26.426Z,2.38
2022-11-29T15:17:15.696Z,2.63
2022-11-29T15:19:56.054Z,3.90
2022-11-29T15:22:29.700Z,2.50
2022-11-29T15:25:12.709Z,3.40
2022-11-29T15:27:53.694Z,2.27
2022-11-29T15:30:37.389Z,2.28
2022-11-29T15:33:24.616Z,2.83
2022-11-29T15:35:54.764Z,2.47
2022-11-29T15:38:23.445Z,2.30
2022-11-29T15:40:53.053Z,2.50
2022-11-29T15:43:34.906Z,2.10
2022-11-29T15:46:02.054Z,2.20
2022-11-29T15:48:33.206Z,2.10
2022-11-29T15:51:13.034Z,2.53
2022-11-29T15:53:43.822Z,2.53
2022-11-29T15:56:26.051Z,2.30
2022-11-29T15:58:59.612Z,2.65
2022-11-29T16:01:26.607Z,2.35
2022-11-29T16:03:55.662Z,2.30
2022-11-29T16:06:41.444Z,2.10
2022-11-29T16:09:14.767Z,3.85
2022-11-29T16:11:41.667Z,3.67
2022-11-29T16:14:11.044Z,2.03
2022-11-29T16:16:40.342Z,3.92
2022-11-29T16:19:21.572Z,1.97
2022-11-29T16:22:11.409Z,2.67
2022-11-29T16:24:39.956Z,2.80
2022-11-29T16:27:08.061Z,3.60
2022-11-29T16:29:38.230Z,3.30
2022-11-29T16:32:28.113Z,3.10
2022-11-29T16:34:56.393Z,2.67
2022-11-29T16:37:28.413Z,2.20
2022-11-29T16:40:01.636Z,2.20
2022-11-29T16:42:33.656Z,2.75
2022-11-29T16:45:03.904Z,2.10
2022-11-29T16:47:47.033Z,2.30
2022-11-29T16:50:17.753Z,2.03
2022-11-29T16:52:45.261Z,2.03
2022-11-29T16:55:12.426Z,2.00
2022-11-29T16:57:42.529Z,2.10
2022-11-29T17:00:25.041Z,2.22
2022-11-29T17:02:51.786Z,2.30
2022-11-29T17:05:18.550Z,2.03
2022-11-29T17:07:45.668Z,2.58
2022-11-29T17:10:17.236Z,2.30
2022-11-29T17:12:47.951Z,3.78
2022-11-29T17:15:15.442Z,1.95
2022-11-29T17:17:43.516Z,2.28
2022-11-29T17:20:12.566Z,1.65
2022-11-29T17:22:39.390Z,2.73
2022-11-29T17:25:06.428Z,2.45
2022-11-29T17:27:33.093Z,3.17
2022-11-29T17:29:59.797Z,3.90
2022-11-29T17:32:27.137Z,3.47
2022-11-29T17:34:54.055Z,4.90
2022-11-29T17:37:20.862Z,4.53
2022-11-29T17:39:49.106Z,4.05
2022-11-29T17:42:15.901Z,5.82
2022-11-29T17:44:42.666Z,4.90
2022-11-29T17:47:09.462Z,3.33
2022-11-29T17:49:36.207Z,2.25
2022-11-29T17:52:02.997Z,2.60
2022-11-29T17:54:32.966Z,3.20
2022-11-29T17:57:00.780Z,3.20
2022-11-29T17:59:27.651Z,4.47
2022-11-29T18:01:54.697Z,3.78
2022-11-29T18:04:21.525Z,4.15
2022-11-29T18:06:50.438Z,3.78
2022-11-29T18:09:18.603Z,3.70
2022-11-29T18:11:49.414Z,3.33
2022-11-29T18:14:20.008Z,4.35
2022-11-29T18:16:46.841Z,3.03
2022-11-29T18:19:17.369Z,3.00
2022-11-29T18:21:44.514Z,5.15
2022-11-29T18:24:11.522Z,3.60
2022-11-29T18:26:39.035Z,4.40
2022-11-29T18:29:06.492Z,2.55
2022-11-29T18:31:38.728Z,3.63
2022-11-29T18:34:07.243Z,3.30
2022-11-29T18:36:37.049Z,3.60
2022-11-29T18:39:09.218Z,4.35
2022-11-29T18:41:37.096Z,4.45
2022-11-29T18:44:08.876Z,7.00
2022-11-29T18:46:37.515Z,5.15
2022-11-29T18:49:07.150Z,5.90
2022-11-29T18:51:35.432Z,4.72
2022-11-29T18:54:03.305Z,6.05
2022-11-29T18:56:32.700Z,3.95
2022-11-29T18:59:04.786Z,3.40
2022-11-29T19:01:35.355Z,3.37
2022-11-29T19:04:02.469Z,3.15
2022-11-29T19:06:39.405Z,2.92
2022-11-29T19:09:11.530Z,3.58
2022-11-29T19:11:38.689Z,2.65
2022-11-29T19:14:11.694Z,3.73
2022-11-29T19:16:43.433Z,3.60
2022-11-29T19:19:12.730Z,3.60
2022-11-29T19:21:40.205Z,2.67
2022-11-29T19:24:14.055Z,3.38
2022-11-29T19:26:44.652Z,2.70
2022-11-29T19:29:13.418Z,2.63
2022-11-29T19:31:40.911Z,2.90
2022-11-29T19:34:08.291Z,2.80
2022-11-29T19:36:42.806Z,2.90
2022-11-29T19:39:11.661Z,2.63
2022-11-29T19:41:38.452Z,2.97
2022-11-29T19:44:07.598Z,3.03
2022-11-29T19:46:37.421Z,5.50
2022-11-29T19:49:06.154Z,4.43
2022-11-29T19:51:33.268Z,3.40
2022-11-29T19:54:03.061Z,4.40
2022-11-29T19:56:31.542Z,3.50
2022-11-29T19:58:59.845Z,3.90
2022-11-29T20:01:40.848Z,2.80
2022-11-29T20:04:10.293Z,3.03
2022-11-29T20:06:37.285Z,3.30
2022-11-29T20:09:04.090Z,2.88
2022-11-29T20:11:30.747Z,2.85
2022-11-29T20:14:02.400Z,3.30
2022-11-29T20:16:30.313Z,5.37
2022-11-29T20:18:58.168Z,4.97
2022-11-29T20:21:28.173Z,3.97
2022-11-29T20:24:00.811Z,3.60
2022-11-29T20:26:28.862Z,3.03
2022-11-29T20:28:55.685Z,3.07
2022-11-29T20:31:23.570Z,2.95
2022-11-29T20:33:52.714Z,3.13
2022-11-29T20:36:35.821Z,3.08
2022-11-29T20:39:18.790Z,2.63
2022-11-29T20:41:54.801Z,2.60
2022-11-29T20:44:37.935Z,2.50
2022-11-29T20:47:20.919Z,2.20
2022-11-29T20:49:48.503Z,2.65
2022-11-29T20:52:57.321Z,2.65
2022-11-29T20:55:24.063Z,2.37
2022-11-29T20:57:50.769Z,3.58
2022-11-29T21:00:18.286Z,2.50
2022-11-29T21:02:45.022Z,2.40
2022-11-29T21:05:11.717Z,3.08
2022-11-29T21:07:38.512Z,2.53
2022-11-29T21:10:05.757Z,2.63
2022-11-29T21:12:33.082Z,2.95
2022-11-29T21:14:59.956Z,3.53
2022-11-29T21:17:33.120Z,3.13
2022-11-29T21:20:01.186Z,3.30
2022-11-29T21:22:33.937Z,3.17
2022-11-29T21:25:21.170Z,2.60
2022-11-29T21:27:48.229Z,2.70
2022-11-29T21:30:23.780Z,2.38
2022-11-29T21:32:51.290Z,2.30
2022-11-29T21:35:18.418Z,2.42
2022-11-29T21:37:46.061Z,2.35
2022-11-29T21:40:14.242Z,3.00
2022-11-29T21:42:41.324Z,2.13
2022-11-29T21:45:14.915Z,2.60
2022-11-29T21:47:43.075Z,2.33
2022-11-29T21:50:10.594Z,2.33
2022-11-29T21:52:37.276Z,2.10
2022-11-29T21:55:04.545Z,2.20
2022-11-29T21:57:31.268Z,2.40
2022-11-29T21:59:57.972Z,2.20
2022-11-29T22:02:24.788Z,3.28
2022-11-29T22:04:51.538Z,2.67
2022-11-29T22:07:18.368Z,2.80
2022-11-29T22:09:45.892Z,2.50
2022-11-29T22:12:33.164Z,2.88
2022-11-29T22:14:59.395Z,2.80
2022-11-29T22:17:26.007Z,2.63
2022-11-29T22:19:52.733Z,3.15
2022-11-29T22:22:19.373Z,4.10
2022-11-29T22:24:46.536Z,2.90
2022-11-29T22:27:13.308Z,2.45
2022-11-29T22:29:40.022Z,2.30
2022-11-29T22:32:06.701Z,2.15
2022-11-29T22:34:33.411Z,2.67
2022-11-29T22:36:59.992Z,1.98
2022-11-29T22:39:26.781Z,2.30
2022-11-29T22:41:55.058Z,2.95
2022-11-29T22:44:23.705Z,2.40
2022-11-29T22:46:51.098Z,2.47
2022-11-29T22:49:17.855Z,2.05
2022-11-29T22:51:44.581Z,2.15
2022-11-29T22:54:11.816Z,2.28
2022-11-29T22:56:40.516Z,2.70
2022-11-29T22:59:08.284Z,2.20
2022-11-29T23:01:37.246Z,2.47
2022-11-29T23:04:07.145Z,2.80
2022-11-29T23:06:45.574Z,2.65
2022-11-29T23:09:19.762Z,2.90
2022-11-29T23:11:51.932Z,2.13
2022-11-29T23:14:19.876Z,2.40
2022-11-29T23:16:46.531Z,2.75
2022-11-29T23:19:16.118Z,2.25
2022-11-29T23:21:45.471Z,2.35
2022-11-29T23:24:12.786Z,2.30
2022-11-29T23:26:42.613Z,2.40
2022-11-29T23:29:12.740Z,2.70
2022-11-29T23:31:40.092Z,1.80
2022-11-29T23:34:07.261Z,2.45
2022-11-29T23:36:34.298Z,2.57
2022-11-29T23:39:04.488Z,2.30
2022-11-29T23:41:31.369Z,2.35
2022-11-29T23:43:59.704Z,2.10
2022-11-29T23:46:26.679Z,2.00
2022-11-29T23:48:53.596Z,2.50
2022-11-29T23:51:20.367Z,2.20
2022-11-29T23:53:52.620Z,2.70
2022-11-29T23:56:20.397Z,2.72
2022-11-29T23:58:47.542Z,2.53
